Alpine Village, Colorado
Current Conditions -  °F | °C
As of 12:34 AM on Wednesday 26 Nov 2014 (Local Time) from K7BM Reporting Station
Light Snow Light Snow  
Wind Chill: -7°   Ceiling: 1200
Heat Index:   Visibility: 4mi
Dew Point: -7°   Wind: 20mph
Humidity: 60%   Direction: 330°NNW
Pressure: 30.13"   Gusts: 39mph
Location:  38.7194°N, 106.276°W
Report Text: K7BM 260734Z AUTO 33017G34KT 300V360 4SM -SN OVC012 00/M07 A3013 RMK AO2
Loading
Personal Weather Stations






























Interactive Weather Map New forecast layout! Learn more

10-Day Weather Forecast

Advertisements
Track Severe Weather on mobile